メインページ
METAR-TAF:

METAR-TAF

空港 :

シアトル / タコマ, ワシントン, アメリカ合衆国

シアトル・タコマ国際空港

緯度: 47-26-41N, 経度: 122-18-49W, 海抜: 130m

現時点の気象観測

当レポートは39分前の21:53(UTC)に作成
変向風 4kt
気温 26°C
湿度 45%
気圧 1018 hPa
視程: 16.1km
高度5000ftの雲はほとんどない
高度20000ftの雲はほとんどない

METAR: KSEA 262153Z VRB04KT 10SM FEW050 FEW200 26/13 A3007 RMK AO2 SLP185 T02610128

時間: 15:32 (22:32 UTC)

予報

当レポートは1時間27分前の21:05(UTC)に作成
予報は26日の 21時(UTC)から 27日の 24時(UTC)まで有効
西の風 6kt
視程: 10km
高度25000ftの雲はほとんどない
27日の 0600時(UTC)から
南/南西の風 6kt
視程: 10km
高度25000ftの千切れ雲あり
27日の 1000時(UTC)から
南/南西の風 8kt
視程: 10km
高度1000ftの曇り
27日の 2100時(UTC)から
西/南西の風 8kt
視程: 10km
高度5000ftの雲は散在している

TAF: KSEA 262105Z 2621/2724 27006KT P6SM FEW250 FM270600 21006KT P6SM BKN250 FM271000 20008KT P6SM OVC010 FM272100 24008KT P6SM SCT050

4,000以上の空港の気象観測と天気予報(METAR報とTAF報)

利用可能な観測所は地図上に黄色い丸と赤い丸で示す。

丸の上にカーソルを重ねると観測所名を参照できる。

次にクリックすると気象観測と天気予報を参照できる。

マップの切り替え:黒色「×」印の緑ボタンをクリックして拡大、「-」印の緑ボタンをクリックして縮小、緑色の三角印をクリックして隣りの地図に切り替え


METAR-TAF: